Time;durP1;ratioP1;P1;durP2;ratioP2;P2;SDS_P1;SDS_P2;PMS_P1;PMS_P2;Temp;Humidity;BMP_temperature;BMP_pressure;BME280_temperature;BME280_humidity;BME280_pressure;Samples;Min_cycle;Max_cycle;Signal;HPM_P1;HPM_P2
2023/12/08 00:01:13;;;;;;;29.92;16.52;;;;;;;-0.85;100.00;96113.00;5060613;28;20530;-76
2023/12/08 00:03:39;;;;;;;32.58;18.52;;;;;;;-1.14;100.00;96118.84;5068570;28;20043;-74
2023/12/08 00:06:04;;;;;;;28.30;16.65;;;;;;;-1.38;100.00;96119.13;5079354;28;20040;-71
2023/12/08 00:08:29;;;;;;;36.65;23.42;;;;;;;-1.56;100.00;96118.97;5067363;28;20074;-74
2023/12/08 00:10:55;;;;;;;41.35;22.38;;;;;;;-1.53;100.00;96120.28;5074395;28;20036;-75
2023/12/08 00:13:20;;;;;;;31.08;18.48;;;;;;;-1.51;100.00;96114.56;5082413;28;20043;-76
2023/12/08 00:15:46;;;;;;;30.85;17.33;;;;;;;-1.32;100.00;96120.59;5059723;28;20760;-75
2023/12/08 00:18:11;;;;;;;33.92;17.73;;;;;;;-1.11;100.00;96133.56;5075142;28;20521;-76
2023/12/08 00:20:37;;;;;;;34.30;17.30;;;;;;;-0.96;100.00;96131.28;5044834;28;20043;-76
2023/12/08 00:23:03;;;;;;;34.17;17.98;;;;;;;-0.77;100.00;96138.38;5042361;28;20045;-72
2023/12/08 00:25:28;;;;;;;70.88;39.72;;;;;;;-0.58;100.00;96135.47;5044336;28;20045;-76
2023/12/08 00:27:54;;;;;;;33.90;20.00;;;;;;;-0.55;100.00;96128.69;5056019;28;20041;-75
2023/12/08 00:30:20;;;;;;;33.35;17.90;;;;;;;-0.51;100.00;96116.22;5057039;28;20543;-74
2023/12/08 00:32:46;;;;;;;27.77;16.77;;;;;;;-0.49;100.00;96098.66;5068892;28;20051;-75
2023/12/08 00:35:11;;;;;;;28.33;16.75;;;;;;;-0.43;100.00;96097.41;5046291;28;20119;-74
2023/12/08 00:37:36;;;;;;;29.20;16.50;;;;;;;-0.47;100.00;96101.84;5073358;28;20112;-75
2023/12/08 00:40:05;;;;;;;28.20;15.57;;;;;;;-0.60;100.00;96086.56;5059657;28;20068;-71
2023/12/08 00:42:30;;;;;;;25.45;15.43;;;;;;;-0.63;100.00;96098.75;5042841;28;20079;-76
2023/12/08 00:44:56;;;;;;;27.42;15.38;;;;;;;-0.53;100.00;96104.97;5064223;28;20541;-77
2023/12/08 00:47:22;;;;;;;25.13;16.13;;;;;;;-0.43;100.00;96091.25;5079250;28;20201;-75
2023/12/08 00:49:47;;;;;;;26.10;15.63;;;;;;;-0.37;100.00;96091.91;5054744;28;20150;-75
2023/12/08 00:52:13;;;;;;;29.50;15.80;;;;;;;-0.34;100.00;96075.13;5070427;28;20052;-73
2023/12/08 00:54:38;;;;;;;27.73;15.48;;;;;;;-0.50;100.00;96078.25;5071505;28;20074;-71
2023/12/08 00:57:04;;;;;;;27.85;15.60;;;;;;;-0.43;100.00;96078.59;5061951;28;20067;-71
2023/12/08 00:59:29;;;;;;;25.88;14.65;;;;;;;-0.41;100.00;96095.22;5069381;28;20032;-75
2023/12/08 01:01:54;;;;;;;25.50;15.45;;;;;;;-0.52;100.00;96085.03;5047867;28;20033;-75
2023/12/08 01:04:20;;;;;;;26.67;15.82;;;;;;;-0.51;100.00;96084.72;5067042;28;20029;-74
2023/12/08 01:06:45;;;;;;;26.67;15.25;;;;;;;-0.52;100.00;96071.56;5056585;28;20093;-75
2023/12/08 01:09:12;;;;;;;26.13;15.13;;;;;;;-0.85;100.00;96055.75;5050808;28;20052;-75
2023/12/08 01:11:37;;;;;;;27.60;16.75;;;;;;;-1.16;100.00;96045.78;5052419;28;20854;-75
2023/12/08 01:14:03;;;;;;;30.60;17.42;;;;;;;-1.29;100.00;96049.34;5044740;28;20041;-72
2023/12/08 01:16:29;;;;;;;35.38;17.67;;;;;;;-1.28;100.00;96050.91;5073613;28;20099;-74
2023/12/08 01:18:54;;;;;;;28.88;16.95;;;;;;;-1.36;100.00;96047.88;5040963;28;20090;-73
2023/12/08 01:21:20;;;;;;;33.83;18.50;;;;;;;-1.50;100.00;96047.13;5047030;28;20043;-74
2023/12/08 01:23:45;;;;;;;32.50;18.65;;;;;;;-1.74;100.00;96055.47;5059267;28;20137;-73
2023/12/08 01:26:10;;;;;;;33.95;19.08;;;;;;;-1.69;100.00;96074.16;5052363;28;20108;-73
2023/12/08 01:28:36;;;;;;;36.03;17.63;;;;;;;-1.55;100.00;96076.78;5073338;28;20054;-73
2023/12/08 01:31:03;;;;;;;47.25;24.98;;;;;;;-1.27;100.00;96074.00;5088365;28;20044;-74
2023/12/08 01:33:28;;;;;;;33.03;18.13;;;;;;;-1.12;100.00;96073.63;5051911;28;20052;-72
2023/12/08 01:35:54;;;;;;;34.55;18.17;;;;;;;-1.04;100.00;96059.47;5051002;28;20134;-72
2023/12/08 01:38:19;;;;;;;30.52;18.33;;;;;;;-1.28;100.00;96043.66;5061774;28;20054;-71
2023/12/08 01:40:44;;;;;;;29.13;16.88;;;;;;;-1.25;100.00;96064.53;5083291;28;20439;-72
2023/12/08 01:43:11;;;;;;;29.38;16.40;;;;;;;-1.13;100.00;96065.88;5064539;28;20072;-74
2023/12/08 01:45:37;;;;;;;32.53;17.70;;;;;;;-0.92;100.00;96069.63;5078303;28;20040;-74
2023/12/08 01:48:04;;;;;;;30.77;16.92;;;;;;;-0.75;100.00;96071.63;5051652;28;20041;-68
2023/12/08 01:50:29;;;;;;;30.27;16.48;;;;;;;-0.56;100.00;96071.41;5056675;28;20486;-70
2023/12/08 01:52:55;;;;;;;31.23;15.98;;;;;;;-0.51;100.00;96075.84;5041780;28;20075;-73
2023/12/08 01:55:20;;;;;;;26.52;14.95;;;;;;;-0.42;100.00;96055.16;5057059;28;20037;-72
2023/12/08 01:57:46;;;;;;;32.63;16.23;;;;;;;-0.43;100.00;96057.06;5071805;28;20147;-74
2023/12/08 02:00:12;;;;;;;26.10;15.27;;;;;;;-0.46;100.00;96041.53;5043486;28;20538;-73
2023/12/08 02:02:38;;;;;;;29.83;16.55;;;;;;;-0.39;100.00;96031.09;5075760;28;20037;-73
2023/12/08 02:05:04;;;;;;;26.42;15.48;;;;;;;-0.39;100.00;96049.94;5070293;28;20040;-69
2023/12/08 02:07:31;;;;;;;30.10;16.00;;;;;;;-0.42;100.00;96072.09;5039815;28;20044;-74
2023/12/08 02:09:57;;;;;;;24.60;14.85;;;;;;;-0.40;100.00;96056.44;5080407;28;20058;-75
2023/12/08 02:12:22;;;;;;;31.20;15.70;;;;;;;-0.33;100.00;96053.28;5055889;28;20340;-74
2023/12/08 02:14:51;;;;;;;27.33;15.65;;;;;;;-0.35;100.00;96039.34;5077115;28;20106;-71
2023/12/08 02:17:21;;;;;;;27.33;15.55;;;;;;;-0.56;100.00;96038.34;5076134;28;20050;-71
2023/12/08 02:19:47;;;;;;;26.65;14.55;;;;;;;-0.59;100.00;96042.44;5051545;28;20045;-71
2023/12/08 02:22:12;;;;;;;23.98;15.52;;;;;;;-0.53;100.00;96043.88;5038268;28;20553;-72
2023/12/08 02:24:38;;;;;;;25.63;15.88;;;;;;;-0.41;100.00;96033.31;5077389;28;20508;-71
2023/12/08 02:27:04;;;;;;;28.25;15.95;;;;;;;-0.31;100.00;96034.13;5053889;28;20068;-68
2023/12/08 02:29:29;;;;;;;25.75;16.30;;;;;;;-0.38;100.00;96053.41;5073264;28;20048;-72
2023/12/08 02:32:00;;;;;;;28.60;16.30;;;;;;;-0.39;100.00;96038.41;5059753;28;20075;-72
2023/12/08 02:34:27;;;;;;;28.23;15.88;;;;;;;-0.39;100.00;96044.56;5038933;28;20120;-73
2023/12/08 02:36:54;;;;;;;74.60;38.17;;;;;;;-0.43;100.00;96050.91;5059052;28;20140;-70
2023/12/08 02:39:20;;;;;;;33.70;17.67;;;;;;;-0.57;100.00;96042.94;5062089;28;20533;-73
2023/12/08 02:41:46;;;;;;;27.83;16.17;;;;;;;-0.49;100.00;96039.47;5059716;28;20048;-72
2023/12/08 02:44:11;;;;;;;26.25;16.45;;;;;;;-0.36;100.00;96053.94;5054873;28;20048;-71
2023/12/08 02:46:36;;;;;;;28.08;15.90;;;;;;;-0.32;100.00;96046.03;5014036;28;20060;-70
2023/12/08 02:49:02;;;;;;;26.30;16.10;;;;;;;-0.47;100.00;96036.47;5064600;28;20032;-69
2023/12/08 02:51:27;;;;;;;28.83;16.35;;;;;;;-0.52;100.00;96042.78;5050676;28;20050;-71
2023/12/08 02:53:53;;;;;;;29.70;15.90;;;;;;;-0.48;100.00;96051.81;5049873;28;20036;-70
2023/12/08 02:56:19;;;;;;;29.55;16.83;;;;;;;-0.60;100.00;96052.38;5071393;28;20033;-74
2023/12/08 02:58:45;;;;;;;28.17;15.98;;;;;;;-0.69;100.00;96043.50;5040521;28;20151;-72
2023/12/08 03:01:11;;;;;;;30.67;15.10;;;;;;;-0.70;100.00;96046.50;5058240;28;20124;-73
2023/12/08 03:03:36;;;;;;;25.92;15.73;;;;;;;-0.70;100.00;96041.13;5042514;28;20150;-72
2023/12/08 03:06:02;;;;;;;25.38;15.70;;;;;;;-0.68;100.00;96038.94;5047002;28;20068;-69
2023/12/08 03:08:28;;;;;;;26.33;16.25;;;;;;;-0.60;100.00;96047.00;5073719;28;20045;-72
2023/12/08 03:10:53;;;;;;;27.00;16.33;;;;;;;-0.62;100.00;96051.13;5059106;28;20040;-72
2023/12/08 03:13:19;;;;;;;29.13;16.13;;;;;;;-0.57;100.00;96051.00;5059714;28;20084;-73
2023/12/08 03:15:44;;;;;;;27.08;16.40;;;;;;;-0.39;100.00;96049.94;5055236;28;20094;-72
2023/12/08 03:18:09;;;;;;;26.58;16.70;;;;;;;-0.24;100.00;96047.94;5056826;28;20045;-72
2023/12/08 03:20:35;;;;;;;28.23;16.58;;;;;;;-0.20;100.00;96048.88;5058612;28;20045;-74
2023/12/08 03:23:00;;;;;;;27.17;16.70;;;;;;;-0.26;100.00;96064.38;5053442;28;20043;-72
2023/12/08 03:25:25;;;;;;;29.20;16.88;;;;;;;-0.22;100.00;96062.69;5038149;28;20048;-72
2023/12/08 03:27:51;;;;;;;26.25;16.48;;;;;;;-0.31;100.00;96074.50;5040176;28;20073;-75
2023/12/08 03:30:16;;;;;;;27.58;16.00;;;;;;;-0.35;100.00;96073.56;5041017;28;20658;-72
2023/12/08 03:32:42;;;;;;;28.90;16.60;;;;;;;-0.41;100.00;96068.31;5051910;28;20041;-71
2023/12/08 03:35:07;;;;;;;26.05;16.13;;;;;;;-0.39;100.00;96068.00;5071509;28;20055;-72
2023/12/08 03:37:32;;;;;;;28.23;15.57;;;;;;;-0.34;100.00;96077.81;5057821;28;20062;-73
2023/12/08 03:39:58;;;;;;;30.20;16.23;;;;;;;-0.33;100.00;96088.28;5064456;28;20044;-73
2023/12/08 03:42:23;;;;;;;27.48;17.02;;;;;;;-0.46;100.00;96108.78;5067397;28;20104;-73
2023/12/08 03:44:48;;;;;;;29.20;16.02;;;;;;;-0.67;100.00;96102.34;5066745;28;20041;-74
2023/12/08 03:47:14;;;;;;;30.73;17.20;;;;;;;-0.82;100.00;96117.00;5067492;28;20079;-72
2023/12/08 03:49:39;;;;;;;27.83;17.80;;;;;;;-0.84;100.00;96121.88;5071777;28;20649;-74
2023/12/08 03:52:05;;;;;;;28.08;17.13;;;;;;;-0.95;100.00;96118.66;5045494;28;20104;-74
2023/12/08 03:54:30;;;;;;;32.33;17.95;;;;;;;-1.04;100.00;96125.88;5068602;28;20052;-72
2023/12/08 03:56:55;;;;;;;30.85;17.58;;;;;;;-0.79;100.00;96119.88;5043717;28;20040;-73
2023/12/08 03:59:21;;;;;;;29.15;17.63;;;;;;;-0.89;100.00;96103.97;5036180;28;20037;-74
2023/12/08 04:01:46;;;;;;;31.92;17.75;;;;;;;-1.05;100.00;96082.06;5054098;28;20044;-70
2023/12/08 04:04:12;;;;;;;30.83;17.95;;;;;;;-1.25;100.00;96094.09;5038156;28;20538;-73
2023/12/08 04:06:38;;;;;;;28.05;17.77;;;;;;;-1.24;100.00;96102.94;5036750;28;20103;-73
2023/12/08 04:09:03;;;;;;;33.03;19.02;;;;;;;-1.14;100.00;96102.72;5056201;28;20454;-71
2023/12/08 04:11:29;;;;;;;36.08;20.48;;;;;;;-1.05;100.00;96100.88;5067129;28;20041;-72
2023/12/08 04:13:55;;;;;;;36.35;20.45;;;;;;;-1.10;100.00;96097.50;5060771;28;20113;-71
2023/12/08 04:16:20;;;;;;;31.70;18.88;;;;;;;-1.20;100.00;96110.09;5042242;28;20036;-73
2023/12/08 04:18:45;;;;;;;31.65;19.13;;;;;;;-1.19;100.00;96109.00;5049321;28;20036;-71
2023/12/08 04:21:18;;;;;;;37.55;19.35;;;;;;;-1.19;100.00;96106.31;5062590;28;20051;-73
2023/12/08 04:23:43;;;;;;;33.65;19.10;;;;;;;-1.28;100.00;96107.34;5045793;28;20088;-73
2023/12/08 04:26:08;;;;;;;34.85;19.42;;;;;;;-1.28;100.00;96112.72;5052036;28;20135;-71
2023/12/08 04:28:34;;;;;;;35.08;19.58;;;;;;;-1.31;100.00;96116.81;5067384;28;20040;-74
2023/12/08 04:30:59;;;;;;;33.72;20.25;;;;;;;-1.31;100.00;96122.19;5063246;28;20040;-72
2023/12/08 04:33:24;;;;;;;38.15;20.50;;;;;;;-1.35;100.00;96118.53;5055264;28;20040;-72
2023/12/08 04:35:50;;;;;;;36.17;20.35;;;;;;;-1.46;100.00;96122.53;5043975;28;20044;-73
2023/12/08 04:38:15;;;;;;;35.95;19.98;;;;;;;-1.44;100.00;96125.69;5054280;28;20041;-69
2023/12/08 04:40:40;;;;;;;33.03;19.90;;;;;;;-1.44;100.00;96128.38;5075010;28;20514;-72
2023/12/08 04:43:06;;;;;;;34.83;19.83;;;;;;;-1.43;100.00;96138.84;5049150;28;20041;-71
2023/12/08 04:45:38;;;;;;;35.70;20.40;;;;;;;-1.40;100.00;96134.75;5043273;28;20412;-72
2023/12/08 04:48:04;;;;;;;34.92;20.27;;;;;;;-1.44;100.00;96136.44;5025169;28;20042;-69
2023/12/08 04:50:29;;;;;;;36.13;21.20;;;;;;;-1.47;100.00;96139.75;5037047;28;20143;-73
2023/12/08 04:52:54;;;;;;;32.72;19.60;;;;;;;-1.47;100.00;96132.47;5019929;28;20042;-71
2023/12/08 04:55:20;;;;;;;34.58;20.55;;;;;;;-1.45;100.00;96137.56;5008288;28;20034;-72
2023/12/08 04:57:45;;;;;;;36.55;20.05;;;;;;;-1.39;100.00;96147.91;5012548;28;20473;-73
2023/12/08 05:00:11;;;;;;;41.72;21.90;;;;;;;-1.42;100.00;96134.28;4996706;28;20179;-72
2023/12/08 05:02:36;;;;;;;39.05;21.25;;;;;;;-1.48;100.00;96138.94;5008065;28;20046;-71
2023/12/08 05:05:03;;;;;;;38.17;22.38;;;;;;;-1.43;100.00;96154.16;5014976;28;20045;-68
2023/12/08 05:07:29;;;;;;;35.78;20.38;;;;;;;-1.30;100.00;96161.38;5009260;28;20132;-71
2023/12/08 05:09:54;;;;;;;31.35;20.15;;;;;;;-1.14;100.00;96159.13;5009169;28;20750;-70
2023/12/08 05:12:20;;;;;;;35.88;20.40;;;;;;;-1.04;100.00;96150.84;5000632;28;20038;-70
2023/12/08 05:14:45;;;;;;;37.08;20.33;;;;;;;-0.86;100.00;96161.75;5004398;28;20528;-71
2023/12/08 05:17:10;;;;;;;31.17;19.73;;;;;;;-0.67;100.00;96161.53;5008245;28;20060;-72
2023/12/08 05:19:36;;;;;;;31.42;18.25;;;;;;;-0.65;100.00;96151.25;5010039;28;20137;-71
2023/12/08 05:22:03;;;;;;;32.05;19.25;;;;;;;-0.56;100.00;96154.00;4989188;28;20566;-70
2023/12/08 05:24:28;;;;;;;29.65;17.17;;;;;;;-0.52;100.00;96153.09;4984686;28;20038;-72
2023/12/08 05:26:53;;;;;;;33.30;18.67;;;;;;;-0.50;100.00;96150.88;4994845;28;20049;-74
2023/12/08 05:29:19;;;;;;;31.65;18.27;;;;;;;-0.52;100.00;96155.78;4994133;28;20052;-73
2023/12/08 05:31:44;;;;;;;31.63;18.38;;;;;;;-0.50;100.00;96160.84;5007111;28;20444;-73
2023/12/08 05:34:09;;;;;;;30.85;18.02;;;;;;;-0.53;100.00;96154.19;5027591;28;20811;-73
2023/12/08 05:36:35;;;;;;;28.08;17.95;;;;;;;-0.48;100.00;96147.88;5016163;28;20060;-72
2023/12/08 05:39:00;;;;;;;31.58;18.60;;;;;;;-0.43;100.00;96150.44;5022806;28;20049;-76
2023/12/08 05:41:25;;;;;;;28.25;17.52;;;;;;;-0.28;100.00;96155.41;5010751;28;20049;-73
2023/12/08 05:43:51;;;;;;;27.90;17.13;;;;;;;-0.26;100.00;96158.59;5015637;28;20500;-71
2023/12/08 05:46:16;;;;;;;33.42;17.88;;;;;;;-0.21;100.00;96169.22;5011851;28;20381;-73
2023/12/08 05:48:41;;;;;;;43.45;23.15;;;;;;;-0.18;100.00;96167.81;5016623;28;20046;-73
2023/12/08 05:51:07;;;;;;;26.75;17.65;;;;;;;-0.24;100.00;96160.97;5010226;28;20042;-71
2023/12/08 05:53:32;;;;;;;31.27;17.85;;;;;;;-0.20;100.00;96165.44;5051232;28;20046;-71
2023/12/08 05:55:57;;;;;;;29.88;18.55;;;;;;;-0.18;100.00;96162.44;5006006;28;20050;-72
2023/12/08 05:58:24;;;;;;;30.20;17.75;;;;;;;-0.20;100.00;96168.13;4999578;28;21022;-73
2023/12/08 06:00:50;;;;;;;48.20;27.65;;;;;;;-0.25;100.00;96170.94;5019469;28;20509;-74
2023/12/08 06:03:16;;;;;;;65.32;37.08;;;;;;;-0.32;100.00;96178.66;4987356;28;20058;-72
2023/12/08 06:05:41;;;;;;;47.22;28.77;;;;;;;-0.34;100.00;96172.81;4997314;28;20042;-72
2023/12/08 06:08:06;;;;;;;40.70;23.95;;;;;;;-0.33;100.00;96176.28;4990359;28;20038;-72
2023/12/08 06:10:32;;;;;;;31.67;20.10;;;;;;;-0.42;100.00;96177.00;4998886;28;20050;-74
2023/12/08 06:12:57;;;;;;;32.40;18.95;;;;;;;-0.43;100.00;96171.97;4995777;28;20136;-72
2023/12/08 06:15:22;;;;;;;31.27;18.88;;;;;;;-0.41;100.00;96164.38;5016061;28;20108;-74
2023/12/08 06:17:48;;;;;;;32.85;19.58;;;;;;;-0.39;100.00;96171.03;5029104;28;20057;-71
2023/12/08 06:20:14;;;;;;;36.05;22.38;;;;;;;-0.54;100.00;96170.63;4989228;28;20136;-74
2023/12/08 06:22:40;;;;;;;35.30;20.73;;;;;;;-1.02;100.00;96164.00;4988755;28;20038;-71
2023/12/08 06:25:05;;;;;;;30.58;18.88;;;;;;;-1.12;100.00;96167.69;4986474;28;20054;-71
2023/12/08 06:27:31;;;;;;;40.15;19.92;;;;;;;-0.96;100.00;96143.94;4995699;28;20049;-72
2023/12/08 06:29:57;;;;;;;39.28;20.67;;;;;;;-0.69;100.00;96134.16;4986427;28;20046;-72
2023/12/08 06:32:22;;;;;;;36.97;21.17;;;;;;;-0.40;100.00;96136.34;4977306;28;20659;-72
2023/12/08 06:34:47;;;;;;;37.08;21.42;;;;;;;-0.26;100.00;96134.38;4982438;28;20046;-74
2023/12/08 06:37:13;;;;;;;40.38;23.45;;;;;;;-0.20;100.00;96149.28;4978575;28;20042;-71
2023/12/08 06:39:42;;;;;;;41.90;23.95;;;;;;;-0.16;100.00;96141.38;4983028;28;20042;-75
2023/12/08 06:42:07;;;;;;;40.53;22.88;;;;;;;-0.18;100.00;96145.47;4978691;28;20063;-70
2023/12/08 06:44:33;;;;;;;38.10;22.55;;;;;;;-0.14;100.00;96138.38;4985944;28;20046;-72
2023/12/08 06:46:58;;;;;;;41.30;23.48;;;;;;;0.08;100.00;96148.28;4986584;28;20057;-70
2023/12/08 06:49:24;;;;;;;44.60;23.35;;;;;;;0.25;100.00;96144.81;4977557;28;20537;-72
2023/12/08 06:51:49;;;;;;;38.22;21.88;;;;;;;0.27;100.00;96145.28;4982783;28;20077;-72
2023/12/08 06:54:15;;;;;;;39.53;22.30;;;;;;;0.15;100.00;96146.69;4976464;28;20048;-72
2023/12/08 06:56:44;;;;;;;41.45;23.65;;;;;;;0.17;100.00;96146.41;4983082;28;20050;-71
2023/12/08 06:59:10;;;;;;;48.10;24.05;;;;;;;0.03;100.00;96148.41;4976471;28;20061;-72
2023/12/08 07:01:35;;;;;;;43.60;24.33;;;;;;;0.12;100.00;96151.91;4998562;28;20129;-72
2023/12/08 07:04:03;;;;;;;47.70;24.58;;;;;;;0.22;100.00;96154.34;4981169;28;20622;-71
2023/12/08 07:06:29;;;;;;;41.83;24.08;;;;;;;0.11;100.00;96155.72;4984571;28;20555;-73
2023/12/08 07:08:55;;;;;;;46.60;23.92;;;;;;;0.05;100.00;96154.28;4982668;28;20054;-70
2023/12/08 07:11:20;;;;;;;41.90;25.08;;;;;;;0.06;100.00;96156.66;4977313;28;20410;-71
2023/12/08 07:13:45;;;;;;;40.45;23.55;;;;;;;0.04;100.00;96156.19;4983618;28;20046;-71
2023/12/08 07:16:11;;;;;;;52.30;27.67;;;;;;;0.01;100.00;96162.19;4976108;28;20378;-73
2023/12/08 07:18:37;;;;;;;45.97;23.83;;;;;;;0.08;100.00;96159.03;4996082;28;20054;-73
2023/12/08 07:21:06;;;;;;;48.88;26.40;;;;;;;0.17;100.00;96160.66;4993635;28;20038;-68
2023/12/08 07:23:31;;;;;;;43.88;24.15;;;;;;;0.18;100.00;96158.75;4988791;28;20046;-72
2023/12/08 07:25:57;;;;;;;46.80;24.85;;;;;;;0.18;100.00;96159.56;4981167;28;20062;-72
2023/12/08 07:28:22;;;;;;;44.08;24.33;;;;;;;0.22;100.00;96148.13;4977914;28;20055;-73
2023/12/08 07:30:47;;;;;;;40.33;23.95;;;;;;;0.25;100.00;96156.38;4981042;28;20418;-73
2023/12/08 07:33:13;;;;;;;42.17;23.85;;;;;;;0.44;100.00;96158.03;4976008;28;20610;-73
2023/12/08 07:35:38;;;;;;;42.22;22.98;;;;;;;0.55;100.00;96146.63;4979481;28;20081;-73
2023/12/08 07:38:04;;;;;;;40.25;23.25;;;;;;;0.64;100.00;96153.94;4977455;28;20046;-68
2023/12/08 07:40:30;;;;;;;44.05;25.33;;;;;;;0.63;100.00;96150.44;4980773;28;20050;-73
2023/12/08 07:42:55;;;;;;;42.35;24.65;;;;;;;0.64;100.00;96152.03;4980092;28;20489;-72
2023/12/08 07:45:21;;;;;;;56.08;29.67;;;;;;;0.76;100.00;96151.41;4967607;28;20057;-71
2023/12/08 07:47:47;;;;;;;46.33;25.85;;;;;;;0.76;100.00;96156.81;4981372;28;20054;-71
2023/12/08 07:50:13;;;;;;;39.03;21.77;;;;;;;0.70;100.00;96158.03;4992815;28;20426;-70
2023/12/08 07:52:41;;;;;;;42.63;23.27;;;;;;;0.69;100.00;96159.19;4981314;28;20070;-72
2023/12/08 07:55:10;;;;;;;43.78;23.70;;;;;;;0.61;100.00;96162.63;4978960;28;20042;-69
2023/12/08 07:57:36;;;;;;;46.53;27.05;;;;;;;0.58;100.00;96158.69;4997844;28;20046;-69
2023/12/08 08:00:10;;;;;;;41.53;25.90;;;;;;;0.65;100.00;96153.63;4979493;28;20046;-69
2023/12/08 08:02:38;;;;;;;47.33;28.10;;;;;;;0.80;100.00;96146.19;4983039;28;20100;-71
2023/12/08 08:05:07;;;;;;;43.10;25.05;;;;;;;1.01;100.00;96151.72;4994150;28;20168;-68
2023/12/08 08:07:33;;;;;;;41.57;24.33;;;;;;;1.09;100.00;96149.00;4980233;28;20109;-73
2023/12/08 08:09:58;;;;;;;42.63;23.45;;;;;;;1.25;100.00;96149.31;5017563;28;20304;-73
2023/12/08 08:12:23;;;;;;;40.75;22.80;;;;;;;1.41;100.00;96138.81;4993196;28;20454;-73
2023/12/08 08:14:49;;;;;;;38.90;21.50;;;;;;;1.51;100.00;96148.47;4992773;28;20055;-73
2023/12/08 08:17:14;;;;;;;44.70;24.27;;;;;;;1.55;100.00;96145.91;4975340;28;20046;-72
2023/12/08 08:19:41;;;;;;;35.83;20.88;;;;;;;1.61;100.00;96147.34;4982591;28;20050;-72
2023/12/08 08:22:07;;;;;;;37.13;21.13;;;;;;;1.72;100.00;96145.88;4975319;28;20042;-73
2023/12/08 08:24:32;;;;;;;35.38;20.40;;;;;;;1.67;100.00;96143.34;4980726;28;20101;-74
2023/12/08 08:26:58;;;;;;;37.83;21.02;;;;;;;1.72;100.00;96140.47;5000258;28;20064;-75
2023/12/08 08:29:23;;;;;;;41.72;22.27;;;;;;;1.76;100.00;96146.81;4988959;28;20575;-74
2023/12/08 08:31:48;;;;;;;39.72;21.95;;;;;;;1.63;100.00;96153.22;4978918;28;20047;-74
2023/12/08 08:34:14;;;;;;;39.03;21.83;;;;;;;1.58;100.00;96156.09;4992006;28;20350;-75
2023/12/08 08:36:39;;;;;;;42.33;23.38;;;;;;;1.66;100.00;96152.59;4980055;28;20050;-73
2023/12/08 08:39:04;;;;;;;37.70;21.13;;;;;;;1.61;100.00;96145.44;4984923;28;20414;-70
2023/12/08 08:41:30;;;;;;;42.35;23.38;;;;;;;1.63;100.00;96153.22;4993288;28;20054;-75
2023/12/08 08:43:55;;;;;;;39.22;21.90;;;;;;;1.62;100.00;96157.84;4999955;28;20507;-73
2023/12/08 08:46:21;;;;;;;42.55;23.00;;;;;;;1.71;100.00;96155.91;4968006;28;20051;-74
2023/12/08 08:48:46;;;;;;;46.92;24.52;;;;;;;1.88;100.00;96156.94;4980894;28;20060;-72
2023/12/08 08:51:12;;;;;;;42.78;22.05;;;;;;;2.01;100.00;96161.34;4973825;28;20046;-70
2023/12/08 08:53:37;;;;;;;42.92;21.75;;;;;;;1.90;100.00;96160.91;4978557;28;20099;-73
2023/12/08 08:56:03;;;;;;;39.15;20.70;;;;;;;1.83;100.00;96160.59;4998846;28;20049;-69
2023/12/08 08:58:29;;;;;;;38.90;21.85;;;;;;;2.06;100.00;96168.47;5014029;28;20053;-72
2023/12/08 09:00:54;;;;;;;39.28;21.05;;;;;;;2.02;100.00;96165.63;4999145;28;20113;-74
2023/12/08 09:03:20;;;;;;;37.60;21.38;;;;;;;2.02;100.00;96162.16;5002903;28;20103;-71
2023/12/08 09:05:45;;;;;;;39.47;22.67;;;;;;;2.04;100.00;96173.41;5000130;28;20054;-73
2023/12/08 09:08:11;;;;;;;40.15;22.13;;;;;;;1.93;100.00;96172.97;4974592;28;20058;-73
2023/12/08 09:10:40;;;;;;;39.05;21.02;;;;;;;1.94;100.00;96169.16;4978370;28;20046;-74
2023/12/08 09:13:05;;;;;;;43.08;22.27;;;;;;;1.93;100.00;96170.28;4950363;28;20062;-73
2023/12/08 09:15:30;;;;;;;42.10;22.10;;;;;;;1.94;100.00;96176.47;5015529;28;20046;-74
2023/12/08 09:17:56;;;;;;;42.08;22.40;;;;;;;1.94;100.00;96168.38;5015049;28;20049;-74
2023/12/08 09:20:22;;;;;;;39.63;22.70;;;;;;;2.01;100.00;96176.75;4992830;28;20254;-73
2023/12/08 09:22:47;;;;;;;36.70;21.77;;;;;;;2.10;100.00;96174.81;4998793;28;20100;-74
2023/12/08 09:25:12;;;;;;;39.45;21.67;;;;;;;2.27;100.00;96168.56;4994395;28;20045;-73
2023/12/08 09:27:38;;;;;;;40.80;21.77;;;;;;;2.39;100.00;96165.91;4999213;28;20045;-73
2023/12/08 09:30:05;;;;;;;38.72;21.67;;;;;;;2.48;100.00;96171.28;4993568;28;20501;-69
2023/12/08 09:32:31;;;;;;;37.63;20.42;;;;;;;2.54;100.00;96177.28;4982982;28;20074;-72
2023/12/08 09:34:56;;;;;;;36.80;20.63;;;;;;;2.61;100.00;96188.38;4983739;28;20128;-75
2023/12/08 09:37:21;;;;;;;35.08;20.15;;;;;;;2.70;100.00;96185.63;4978740;28;20541;-72
2023/12/08 09:39:48;;;;;;;38.13;20.35;;;;;;;2.74;100.00;96191.94;4983710;28;20043;-74
2023/12/08 09:42:29;;;;;;;42.03;20.77;;;;;;;2.80;100.00;96183.31;4979312;28;20591;-75
2023/12/08 09:44:54;;;;;;;33.78;19.90;;;;;;;2.83;100.00;96184.59;4983912;28;20046;-73
2023/12/08 09:47:21;;;;;;;39.05;20.88;;;;;;;2.81;100.00;96176.81;4971554;28;20050;-73
2023/12/08 09:49:46;;;;;;;38.60;20.83;;;;;;;2.85;100.00;96179.66;4985179;28;20185;-73
2023/12/08 09:52:15;;;;;;;36.30;21.00;;;;;;;2.82;100.00;96175.69;4978144;28;20121;-75
2023/12/08 09:54:43;;;;;;;35.33;19.38;;;;;;;2.91;100.00;96166.72;4982332;28;20133;-73
2023/12/08 09:57:09;;;;;;;38.70;20.40;;;;;;;3.03;100.00;96159.44;4997343;28;20100;-72
2023/12/08 09:59:37;;;;;;;36.55;21.15;;;;;;;3.06;100.00;96160.69;5002661;28;20504;-73
2023/12/08 10:02:03;;;;;;;36.15;20.42;;;;;;;3.13;100.00;96163.66;5002046;28;20033;-71
2023/12/08 10:04:28;;;;;;;38.50;20.25;;;;;;;3.16;100.00;96162.22;5027261;28;20849;-71
2023/12/08 10:07:00;;;;;;;38.53;21.10;;;;;;;3.23;100.00;96170.59;4991139;28;20050;-75
2023/12/08 10:09:29;;;;;;;39.88;21.15;;;;;;;3.29;100.00;96163.06;4977825;28;20042;-72
2023/12/08 10:11:54;;;;;;;35.03;19.83;;;;;;;3.18;100.00;96162.69;4994421;28;20046;-74
2023/12/08 10:14:21;;;;;;;38.17;20.75;;;;;;;3.19;100.00;96161.56;4981866;28;20440;-73
2023/12/08 10:16:47;;;;;;;38.05;21.38;;;;;;;3.25;100.00;96166.44;4976100;28;20078;-73
2023/12/08 10:19:12;;;;;;;38.00;21.00;;;;;;;3.25;100.00;96163.72;4988926;28;20378;-73
2023/12/08 10:21:38;;;;;;;36.55;21.52;;;;;;;3.34;100.00;96158.22;4988436;28;20108;-70
2023/12/08 10:24:04;;;;;;;41.08;21.65;;;;;;;3.27;100.00;96154.50;4990076;28;20042;-70
2023/12/08 10:26:31;;;;;;;36.90;21.20;;;;;;;3.34;100.00;96147.41;5016828;28;20177;-74
2023/12/08 10:28:58;;;;;;;37.83;21.40;;;;;;;3.33;100.00;96151.25;5018517;28;20037;-73
2023/12/08 10:31:25;;;;;;;42.53;21.10;;;;;;;3.50;100.00;96139.44;4995113;28;20276;-72
2023/12/08 10:33:51;;;;;;;38.40;20.92;;;;;;;3.51;100.00;96140.22;4974376;28;20647;-71
2023/12/08 10:36:18;;;;;;;38.03;20.42;;;;;;;3.67;100.00;96138.47;4978576;28;20038;-73
2023/12/08 10:38:45;;;;;;;38.83;21.38;;;;;;;3.80;100.00;96150.91;4981892;28;20501;-74
2023/12/08 10:41:10;;;;;;;39.42;20.60;;;;;;;3.85;100.00;96152.59;4959827;28;20054;-72
2023/12/08 10:43:37;;;;;;;33.78;20.48;;;;;;;3.75;100.00;96151.13;4983046;28;20048;-75
2023/12/08 10:46:03;;;;;;;45.22;22.60;;;;;;;3.75;100.00;96151.13;4980848;28;20603;-70
2023/12/08 10:48:29;;;;;;;42.33;21.95;;;;;;;3.62;100.00;96153.03;4981116;28;20050;-71
2023/12/08 10:50:56;;;;;;;39.97;22.52;;;;;;;3.68;100.00;96152.81;4981778;28;20397;-74
2023/12/08 10:53:22;;;;;;;39.30;21.08;;;;;;;3.66;100.00;96146.94;4977633;28;20065;-72
2023/12/08 10:56:09;;;;;;;40.83;22.08;;;;;;;3.51;100.00;96137.53;4983084;28;20038;-74
2023/12/08 10:58:36;;;;;;;38.83;21.65;;;;;;;3.32;100.00;96144.25;5009643;28;20093;-71
2023/12/08 11:01:14;;;;;;;41.03;22.98;;;;;;;3.39;100.00;96144.50;5000643;28;20056;-74
2023/12/08 11:03:43;;;;;;;39.28;21.73;;;;;;;2.87;100.00;96143.03;4979089;28;20046;-75
2023/12/08 11:06:12;;;;;;;44.83;23.45;;;;;;;2.60;100.00;96140.84;4977232;28;20109;-74